sensor_id;sensor_type;location;lat;lon;timestamp;temperature;humidity
25753;DHT22;13600;50.816;4.416;2024-03-02T00:00:22;7.90;99.90
25753;DHT22;13600;50.816;4.416;2024-03-02T00:02:49;7.90;99.90
25753;DHT22;13600;50.816;4.416;2024-03-02T00:05:20;7.70;99.90
25753;DHT22;13600;50.816;4.416;2024-03-02T00:10:20;7.60;99.90
25753;DHT22;13600;50.816;4.416;2024-03-02T00:12:49;7.50;99.90
25753;DHT22;13600;50.816;4.416;2024-03-02T00:18:07;7.30;99.90
25753;DHT22;13600;50.816;4.416;2024-03-02T00:20:34;7.20;99.90
25753;DHT22;13600;50.816;4.416;2024-03-02T00:23:07;7.20;99.90
25753;DHT22;13600;50.816;4.416;2024-03-02T00:25:43;7.30;99.90
25753;DHT22;13600;50.816;4.416;2024-03-02T00:28:30;7.20;99.90
25753;DHT22;13600;50.816;4.416;2024-03-02T00:31:03;7.10;99.90
25753;DHT22;13600;50.816;4.416;2024-03-02T00:33:48;7.10;99.90
25753;DHT22;13600;50.816;4.416;2024-03-02T00:36:26;7.20;99.90
25753;DHT22;13600;50.816;4.416;2024-03-02T00:38:54;7.20;99.90
25753;DHT22;13600;50.816;4.416;2024-03-02T00:41:24;7.20;99.90
25753;DHT22;13600;50.816;4.416;2024-03-02T00:44:13;7.20;99.90
25753;DHT22;13600;50.816;4.416;2024-03-02T00:46:40;7.20;99.90
25753;DHT22;13600;50.816;4.416;2024-03-02T00:49:21;7.30;99.90
25753;DHT22;13600;50.816;4.416;2024-03-02T00:51:49;7.10;99.90
25753;DHT22;13600;50.816;4.416;2024-03-02T00:54:22;7.10;99.90
25753;DHT22;13600;50.816;4.416;2024-03-02T00:56:50;7.00;99.90
25753;DHT22;13600;50.816;4.416;2024-03-02T00:59:16;6.90;99.90
25753;DHT22;13600;50.816;4.416;2024-03-02T01:01:41;7.00;99.90
25753;DHT22;13600;50.816;4.416;2024-03-02T01:04:10;7.00;99.90
25753;DHT22;13600;50.816;4.416;2024-03-02T01:06:36;7.00;99.90
25753;DHT22;13600;50.816;4.416;2024-03-02T01:09:02;7.00;99.90
25753;DHT22;13600;50.816;4.416;2024-03-02T01:11:31;7.20;99.90
25753;DHT22;13600;50.816;4.416;2024-03-02T01:13:57;7.20;99.90
25753;DHT22;13600;50.816;4.416;2024-03-02T01:16:22;7.20;99.90
25753;DHT22;13600;50.816;4.416;2024-03-02T01:18:48;7.20;99.90
25753;DHT22;13600;50.816;4.416;2024-03-02T01:21:15;7.30;99.90
25753;DHT22;13600;50.816;4.416;2024-03-02T01:23:40;7.30;99.90
25753;DHT22;13600;50.816;4.416;2024-03-02T01:26:06;7.30;99.90
25753;DHT22;13600;50.816;4.416;2024-03-02T01:28:33;7.40;99.90
25753;DHT22;13600;50.816;4.416;2024-03-02T01:30:58;7.40;99.90
25753;DHT22;13600;50.816;4.416;2024-03-02T01:33:24;7.50;99.90
25753;DHT22;13600;50.816;4.416;2024-03-02T01:35:50;7.60;99.90
25753;DHT22;13600;50.816;4.416;2024-03-02T01:38:16;7.50;99.90
25753;DHT22;13600;50.816;4.416;2024-03-02T01:40:42;7.60;99.90
25753;DHT22;13600;50.816;4.416;2024-03-02T01:43:10;7.70;99.90
25753;DHT22;13600;50.816;4.416;2024-03-02T01:45:35;7.80;99.90
25753;DHT22;13600;50.816;4.416;2024-03-02T01:48:04;7.80;99.90
25753;DHT22;13600;50.816;4.416;2024-03-02T01:50:32;7.70;99.90
25753;DHT22;13600;50.816;4.416;2024-03-02T01:52:59;7.70;99.90
25753;DHT22;13600;50.816;4.416;2024-03-02T01:55:25;7.70;99.90
25753;DHT22;13600;50.816;4.416;2024-03-02T01:57:51;7.60;99.90
25753;DHT22;13600;50.816;4.416;2024-03-02T02:00:21;7.50;99.90
25753;DHT22;13600;50.816;4.416;2024-03-02T02:02:47;7.50;99.90
25753;DHT22;13600;50.816;4.416;2024-03-02T02:05:14;7.50;99.90
25753;DHT22;13600;50.816;4.416;2024-03-02T02:07:43;7.40;99.90
25753;DHT22;13600;50.816;4.416;2024-03-02T02:10:10;7.40;99.90
25753;DHT22;13600;50.816;4.416;2024-03-02T02:12:36;7.40;99.90
25753;DHT22;13600;50.816;4.416;2024-03-02T02:15:04;7.40;99.90
25753;DHT22;13600;50.816;4.416;2024-03-02T02:17:46;7.50;99.90
25753;DHT22;13600;50.816;4.416;2024-03-02T02:20:12;7.50;99.90
25753;DHT22;13600;50.816;4.416;2024-03-02T02:22:38;7.60;99.90
25753;DHT22;13600;50.816;4.416;2024-03-02T02:25:04;7.60;99.90
25753;DHT22;13600;50.816;4.416;2024-03-02T02:27:29;7.60;99.90
25753;DHT22;13600;50.816;4.416;2024-03-02T02:29:56;7.60;99.90
25753;DHT22;13600;50.816;4.416;2024-03-02T02:32:21;7.60;99.90
25753;DHT22;13600;50.816;4.416;2024-03-02T02:34:52;7.60;99.90
25753;DHT22;13600;50.816;4.416;2024-03-02T02:37:18;7.50;99.90
25753;DHT22;13600;50.816;4.416;2024-03-02T02:39:43;7.50;99.90
25753;DHT22;13600;50.816;4.416;2024-03-02T02:42:09;7.50;99.90
25753;DHT22;13600;50.816;4.416;2024-03-02T02:44:35;7.50;99.90
25753;DHT22;13600;50.816;4.416;2024-03-02T02:47:01;7.60;99.90
25753;DHT22;13600;50.816;4.416;2024-03-02T02:49:28;7.60;99.90
25753;DHT22;13600;50.816;4.416;2024-03-02T02:51:53;7.50;99.90
25753;DHT22;13600;50.816;4.416;2024-03-02T02:54:19;7.50;99.90
25753;DHT22;13600;50.816;4.416;2024-03-02T02:56:45;7.50;99.90
25753;DHT22;13600;50.816;4.416;2024-03-02T02:59:10;7.40;99.90
25753;DHT22;13600;50.816;4.416;2024-03-02T03:01:36;7.40;99.90
25753;DHT22;13600;50.816;4.416;2024-03-02T03:04:02;7.30;99.90
25753;DHT22;13600;50.816;4.416;2024-03-02T03:06:30;7.20;99.90
25753;DHT22;13600;50.816;4.416;2024-03-02T03:08:55;7.20;99.90
25753;DHT22;13600;50.816;4.416;2024-03-02T03:11:21;7.10;99.90
25753;DHT22;13600;50.816;4.416;2024-03-02T03:13:48;7.10;99.90
25753;DHT22;13600;50.816;4.416;2024-03-02T03:16:13;7.20;99.90
25753;DHT22;13600;50.816;4.416;2024-03-02T03:18:39;7.10;99.90
25753;DHT22;13600;50.816;4.416;2024-03-02T03:21:05;7.00;99.90
25753;DHT22;13600;50.816;4.416;2024-03-02T03:23:31;7.10;99.90
25753;DHT22;13600;50.816;4.416;2024-03-02T03:25:56;7.10;99.90
25753;DHT22;13600;50.816;4.416;2024-03-02T03:28:22;7.20;99.90
25753;DHT22;13600;50.816;4.416;2024-03-02T03:30:48;7.20;99.90
25753;DHT22;13600;50.816;4.416;2024-03-02T03:33:13;7.20;99.90
25753;DHT22;13600;50.816;4.416;2024-03-02T03:35:39;7.20;99.90
25753;DHT22;13600;50.816;4.416;2024-03-02T03:38:05;7.30;99.90
25753;DHT22;13600;50.816;4.416;2024-03-02T03:40:31;7.40;99.90
25753;DHT22;13600;50.816;4.416;2024-03-02T03:42:56;7.40;99.90
25753;DHT22;13600;50.816;4.416;2024-03-02T03:45:22;7.40;99.90
25753;DHT22;13600;50.816;4.416;2024-03-02T03:47:48;7.50;99.90
25753;DHT22;13600;50.816;4.416;2024-03-02T03:50:14;7.50;99.90
25753;DHT22;13600;50.816;4.416;2024-03-02T03:52:39;7.50;99.90
25753;DHT22;13600;50.816;4.416;2024-03-02T03:55:06;7.50;99.90
25753;DHT22;13600;50.816;4.416;2024-03-02T03:57:33;7.40;99.90
25753;DHT22;13600;50.816;4.416;2024-03-02T04:00:00;7.20;99.90
25753;DHT22;13600;50.816;4.416;2024-03-02T04:02:26;7.20;99.90
25753;DHT22;13600;50.816;4.416;2024-03-02T04:04:51;7.20;99.90
25753;DHT22;13600;50.816;4.416;2024-03-02T04:07:17;7.30;99.90
25753;DHT22;13600;50.816;4.416;2024-03-02T04:09:43;7.30;99.90
25753;DHT22;13600;50.816;4.416;2024-03-02T04:12:09;7.20;99.90
25753;DHT22;13600;50.816;4.416;2024-03-02T04:14:35;7.10;99.90
25753;DHT22;13600;50.816;4.416;2024-03-02T04:17:00;7.10;99.90
25753;DHT22;13600;50.816;4.416;2024-03-02T04:19:26;7.10;99.90
25753;DHT22;13600;50.816;4.416;2024-03-02T04:21:53;7.20;99.90
25753;DHT22;13600;50.816;4.416;2024-03-02T04:24:19;7.00;99.90
25753;DHT22;13600;50.816;4.416;2024-03-02T04:26:45;7.00;99.90
25753;DHT22;13600;50.816;4.416;2024-03-02T04:29:10;7.00;99.90
25753;DHT22;13600;50.816;4.416;2024-03-02T04:31:36;6.90;99.90
25753;DHT22;13600;50.816;4.416;2024-03-02T04:34:03;6.90;99.90
25753;DHT22;13600;50.816;4.416;2024-03-02T04:36:29;6.90;99.90
25753;DHT22;13600;50.816;4.416;2024-03-02T04:38:55;6.90;99.90
25753;DHT22;13600;50.816;4.416;2024-03-02T04:41:20;6.90;99.90
25753;DHT22;13600;50.816;4.416;2024-03-02T04:43:47;6.90;99.90
25753;DHT22;13600;50.816;4.416;2024-03-02T04:46:14;6.80;99.90
25753;DHT22;13600;50.816;4.416;2024-03-02T04:48:40;6.90;99.90
25753;DHT22;13600;50.816;4.416;2024-03-02T04:51:06;6.90;99.90
25753;DHT22;13600;50.816;4.416;2024-03-02T04:53:32;6.90;99.90
25753;DHT22;13600;50.816;4.416;2024-03-02T04:55:57;6.90;99.90
25753;DHT22;13600;50.816;4.416;2024-03-02T04:58:43;6.80;99.90
25753;DHT22;13600;50.816;4.416;2024-03-02T05:01:09;6.90;99.90
25753;DHT22;13600;50.816;4.416;2024-03-02T05:03:34;6.90;99.90
25753;DHT22;13600;50.816;4.416;2024-03-02T05:06:00;6.80;99.90
25753;DHT22;13600;50.816;4.416;2024-03-02T05:08:26;6.80;99.90
25753;DHT22;13600;50.816;4.416;2024-03-02T05:10:52;6.80;99.90
25753;DHT22;13600;50.816;4.416;2024-03-02T05:13:17;6.80;99.90
25753;DHT22;13600;50.816;4.416;2024-03-02T05:15:43;6.80;99.90
25753;DHT22;13600;50.816;4.416;2024-03-02T05:18:09;6.70;99.90
25753;DHT22;13600;50.816;4.416;2024-03-02T05:20:35;6.70;99.90
25753;DHT22;13600;50.816;4.416;2024-03-02T05:23:01;6.80;99.90
25753;DHT22;13600;50.816;4.416;2024-03-02T05:25:26;6.80;99.90
25753;DHT22;13600;50.816;4.416;2024-03-02T05:27:52;6.80;99.90
25753;DHT22;13600;50.816;4.416;2024-03-02T05:30:18;6.70;99.90
25753;DHT22;13600;50.816;4.416;2024-03-02T05:32:43;6.70;99.90
25753;DHT22;13600;50.816;4.416;2024-03-02T05:35:09;6.70;99.90
25753;DHT22;13600;50.816;4.416;2024-03-02T05:37:36;6.70;99.90
25753;DHT22;13600;50.816;4.416;2024-03-02T05:40:03;6.70;99.90
25753;DHT22;13600;50.816;4.416;2024-03-02T05:42:31;6.60;99.90
25753;DHT22;13600;50.816;4.416;2024-03-02T05:44:56;6.50;99.90
25753;DHT22;13600;50.816;4.416;2024-03-02T05:47:22;6.60;99.90
25753;DHT22;13600;50.816;4.416;2024-03-02T05:49:48;6.70;99.90
25753;DHT22;13600;50.816;4.416;2024-03-02T05:52:14;6.60;99.90
25753;DHT22;13600;50.816;4.416;2024-03-02T05:54:39;6.60;99.90
25753;DHT22;13600;50.816;4.416;2024-03-02T05:57:05;6.70;99.90
25753;DHT22;13600;50.816;4.416;2024-03-02T06:00:03;6.70;99.90
25753;DHT22;13600;50.816;4.416;2024-03-02T06:02:33;6.70;99.90
25753;DHT22;13600;50.816;4.416;2024-03-02T06:05:00;6.60;99.90
25753;DHT22;13600;50.816;4.416;2024-03-02T06:07:26;6.50;99.90
25753;DHT22;13600;50.816;4.416;2024-03-02T06:09:52;6.50;99.90
25753;DHT22;13600;50.816;4.416;2024-03-02T06:12:18;6.50;99.90
25753;DHT22;13600;50.816;4.416;2024-03-02T06:14:44;6.60;99.90
25753;DHT22;13600;50.816;4.416;2024-03-02T06:17:10;6.60;99.90
25753;DHT22;13600;50.816;4.416;2024-03-02T06:19:36;6.60;99.90
25753;DHT22;13600;50.816;4.416;2024-03-02T06:22:01;6.60;99.90
25753;DHT22;13600;50.816;4.416;2024-03-02T06:24:27;6.50;99.90
25753;DHT22;13600;50.816;4.416;2024-03-02T06:26:53;6.50;99.90
25753;DHT22;13600;50.816;4.416;2024-03-02T06:29:18;6.50;99.90
25753;DHT22;13600;50.816;4.416;2024-03-02T06:31:44;6.60;99.90
25753;DHT22;13600;50.816;4.416;2024-03-02T06:34:10;6.60;99.90
25753;DHT22;13600;50.816;4.416;2024-03-02T06:36:35;6.60;99.90
25753;DHT22;13600;50.816;4.416;2024-03-02T06:39:01;6.60;99.90
25753;DHT22;13600;50.816;4.416;2024-03-02T06:41:27;6.60;99.90
25753;DHT22;13600;50.816;4.416;2024-03-02T06:43:54;6.80;99.90
25753;DHT22;13600;50.816;4.416;2024-03-02T06:46:25;6.80;99.90
25753;DHT22;13600;50.816;4.416;2024-03-02T06:48:51;6.90;99.90
25753;DHT22;13600;50.816;4.416;2024-03-02T06:51:16;6.90;99.90
25753;DHT22;13600;50.816;4.416;2024-03-02T06:53:42;7.00;99.90
25753;DHT22;13600;50.816;4.416;2024-03-02T06:56:08;6.90;99.90
25753;DHT22;13600;50.816;4.416;2024-03-02T06:58:34;6.90;99.90
25753;DHT22;13600;50.816;4.416;2024-03-02T07:01:00;7.00;99.90
25753;DHT22;13600;50.816;4.416;2024-03-02T07:03:26;7.00;99.90
25753;DHT22;13600;50.816;4.416;2024-03-02T07:05:51;6.90;99.90
25753;DHT22;13600;50.816;4.416;2024-03-02T07:08:17;6.90;99.90
25753;DHT22;13600;50.816;4.416;2024-03-02T07:10:43;7.00;99.90
25753;DHT22;13600;50.816;4.416;2024-03-02T07:13:09;7.00;99.90
25753;DHT22;13600;50.816;4.416;2024-03-02T07:15:34;7.00;99.90
25753;DHT22;13600;50.816;4.416;2024-03-02T07:18:23;7.10;99.90
25753;DHT22;13600;50.816;4.416;2024-03-02T07:20:49;7.10;99.90
25753;DHT22;13600;50.816;4.416;2024-03-02T07:23:17;7.30;99.90
25753;DHT22;13600;50.816;4.416;2024-03-02T07:25:42;7.30;99.90
25753;DHT22;13600;50.816;4.416;2024-03-02T07:28:08;7.30;99.90
25753;DHT22;13600;50.816;4.416;2024-03-02T07:30:34;7.30;99.90
25753;DHT22;13600;50.816;4.416;2024-03-02T07:33:00;7.40;99.90
25753;DHT22;13600;50.816;4.416;2024-03-02T07:35:27;7.50;99.90
25753;DHT22;13600;50.816;4.416;2024-03-02T07:37:54;7.60;99.90
25753;DHT22;13600;50.816;4.416;2024-03-02T07:40:20;7.70;99.90
25753;DHT22;13600;50.816;4.416;2024-03-02T07:42:47;7.70;99.90
25753;DHT22;13600;50.816;4.416;2024-03-02T07:45:13;7.70;99.90
25753;DHT22;13600;50.816;4.416;2024-03-02T07:47:39;7.70;99.90
25753;DHT22;13600;50.816;4.416;2024-03-02T07:50:05;7.70;99.90
25753;DHT22;13600;50.816;4.416;2024-03-02T07:52:34;7.90;99.90
25753;DHT22;13600;50.816;4.416;2024-03-02T07:55:00;8.00;99.90
25753;DHT22;13600;50.816;4.416;2024-03-02T07:57:26;8.00;99.90
25753;DHT22;13600;50.816;4.416;2024-03-02T07:59:52;8.20;99.90
25753;DHT22;13600;50.816;4.416;2024-03-02T08:02:18;8.30;99.90
25753;DHT22;13600;50.816;4.416;2024-03-02T08:04:43;8.30;99.90
25753;DHT22;13600;50.816;4.416;2024-03-02T08:07:12;8.40;99.90
25753;DHT22;13600;50.816;4.416;2024-03-02T08:09:39;8.60;99.90
25753;DHT22;13600;50.816;4.416;2024-03-02T08:12:04;8.60;99.90
25753;DHT22;13600;50.816;4.416;2024-03-02T08:14:30;8.70;99.90
25753;DHT22;13600;50.816;4.416;2024-03-02T08:16:56;8.70;99.90
25753;DHT22;13600;50.816;4.416;2024-03-02T08:19:22;8.80;99.90
25753;DHT22;13600;50.816;4.416;2024-03-02T08:21:48;8.80;99.90
25753;DHT22;13600;50.816;4.416;2024-03-02T08:24:14;8.90;99.90
25753;DHT22;13600;50.816;4.416;2024-03-02T08:26:40;9.10;99.90
25753;DHT22;13600;50.816;4.416;2024-03-02T08:29:06;9.30;99.90
25753;DHT22;13600;50.816;4.416;2024-03-02T08:31:31;9.40;99.90
25753;DHT22;13600;50.816;4.416;2024-03-02T08:33:58;9.40;99.90
25753;DHT22;13600;50.816;4.416;2024-03-02T08:36:24;9.40;99.90
25753;DHT22;13600;50.816;4.416;2024-03-02T08:38:50;9.40;99.90
25753;DHT22;13600;50.816;4.416;2024-03-02T08:41:16;9.30;99.90
25753;DHT22;13600;50.816;4.416;2024-03-02T08:43:43;9.40;99.90
25753;DHT22;13600;50.816;4.416;2024-03-02T08:46:09;9.50;99.90
25753;DHT22;13600;50.816;4.416;2024-03-02T08:48:35;9.60;99.90
25753;DHT22;13600;50.816;4.416;2024-03-02T08:51:00;9.70;99.90
25753;DHT22;13600;50.816;4.416;2024-03-02T08:53:26;9.80;99.90
25753;DHT22;13600;50.816;4.416;2024-03-02T08:55:52;9.90;99.90
25753;DHT22;13600;50.816;4.416;2024-03-02T08:58:18;10.10;99.90
25753;DHT22;13600;50.816;4.416;2024-03-02T09:00:44;10.20;99.90
25753;DHT22;13600;50.816;4.416;2024-03-02T09:03:09;10.50;99.90
25753;DHT22;13600;50.816;4.416;2024-03-02T09:05:35;10.90;99.90
25753;DHT22;13600;50.816;4.416;2024-03-02T09:08:02;11.10;99.90
25753;DHT22;13600;50.816;4.416;2024-03-02T09:10:29;11.20;99.90
25753;DHT22;13600;50.816;4.416;2024-03-02T09:12:55;11.20;99.90
25753;DHT22;13600;50.816;4.416;2024-03-02T09:15:21;11.40;99.90
25753;DHT22;13600;50.816;4.416;2024-03-02T09:17:47;12.20;99.90
25753;DHT22;13600;50.816;4.416;2024-03-02T09:20:13;13.00;99.90
25753;DHT22;13600;50.816;4.416;2024-03-02T09:22:39;14.20;99.90
25753;DHT22;13600;50.816;4.416;2024-03-02T09:25:05;13.60;99.90
25753;DHT22;13600;50.816;4.416;2024-03-02T09:27:39;14.00;99.90
25753;DHT22;13600;50.816;4.416;2024-03-02T09:30:10;15.20;99.90
25753;DHT22;13600;50.816;4.416;2024-03-02T09:32:37;14.50;99.90
25753;DHT22;13600;50.816;4.416;2024-03-02T09:35:03;13.70;99.90
25753;DHT22;13600;50.816;4.416;2024-03-02T09:37:29;14.20;99.90
25753;DHT22;13600;50.816;4.416;2024-03-02T09:39:55;13.90;99.90
25753;DHT22;13600;50.816;4.416;2024-03-02T09:42:21;13.50;99.90
25753;DHT22;13600;50.816;4.416;2024-03-02T09:44:48;14.00;99.90
25753;DHT22;13600;50.816;4.416;2024-03-02T09:47:14;14.60;99.90
25753;DHT22;13600;50.816;4.416;2024-03-02T09:49:40;15.10;99.90
25753;DHT22;13600;50.816;4.416;2024-03-02T09:52:07;15.00;99.90
25753;DHT22;13600;50.816;4.416;2024-03-02T09:54:33;14.60;99.90
25753;DHT22;13600;50.816;4.416;2024-03-02T09:56:58;14.20;99.90
25753;DHT22;13600;50.816;4.416;2024-03-02T09:59:27;14.10;99.90
25753;DHT22;13600;50.816;4.416;2024-03-02T10:02:03;14.30;99.90
25753;DHT22;13600;50.816;4.416;2024-03-02T10:04:30;15.60;99.90
25753;DHT22;13600;50.816;4.416;2024-03-02T10:07:15;15.90;99.90
25753;DHT22;13600;50.816;4.416;2024-03-02T10:09:42;16.00;99.90
25753;DHT22;13600;50.816;4.416;2024-03-02T10:12:10;16.60;99.90
25753;DHT22;13600;50.816;4.416;2024-03-02T10:14:37;17.90;99.90
25753;DHT22;13600;50.816;4.416;2024-03-02T10:17:07;19.20;99.90
25753;DHT22;13600;50.816;4.416;2024-03-02T10:19:34;19.50;99.90
25753;DHT22;13600;50.816;4.416;2024-03-02T10:22:08;19.80;99.90
25753;DHT22;13600;50.816;4.416;2024-03-02T10:24:41;18.90;99.90
25753;DHT22;13600;50.816;4.416;2024-03-02T10:27:19;19.00;99.90
25753;DHT22;13600;50.816;4.416;2024-03-02T10:29:48;19.40;99.90
25753;DHT22;13600;50.816;4.416;2024-03-02T10:32:15;19.80;99.40
25753;DHT22;13600;50.816;4.416;2024-03-02T10:34:42;18.30;99.90
25753;DHT22;13600;50.816;4.416;2024-03-02T10:37:08;17.30;99.90
25753;DHT22;13600;50.816;4.416;2024-03-02T10:39:35;16.40;99.90
25753;DHT22;13600;50.816;4.416;2024-03-02T10:42:02;16.40;99.90
25753;DHT22;13600;50.816;4.416;2024-03-02T10:44:30;16.40;99.90
25753;DHT22;13600;50.816;4.416;2024-03-02T10:46:56;17.00;99.90
25753;DHT22;13600;50.816;4.416;2024-03-02T10:49:26;18.20;99.90
25753;DHT22;13600;50.816;4.416;2024-03-02T10:51:53;18.50;99.90
25753;DHT22;13600;50.816;4.416;2024-03-02T10:54:19;19.00;99.90
25753;DHT22;13600;50.816;4.416;2024-03-02T10:56:51;18.00;99.90
25753;DHT22;13600;50.816;4.416;2024-03-02T10:59:34;17.20;99.90
25753;DHT22;13600;50.816;4.416;2024-03-02T11:02:02;16.20;99.90
25753;DHT22;13600;50.816;4.416;2024-03-02T11:04:29;16.70;99.90
25753;DHT22;13600;50.816;4.416;2024-03-02T11:07:04;17.00;99.90
25753;DHT22;13600;50.816;4.416;2024-03-02T11:09:34;15.90;99.90
25753;DHT22;13600;50.816;4.416;2024-03-02T11:12:06;15.20;99.90
25753;DHT22;13600;50.816;4.416;2024-03-02T11:14:37;15.00;99.90
25753;DHT22;13600;50.816;4.416;2024-03-02T11:17:06;16.30;99.90
25753;DHT22;13600;50.816;4.416;2024-03-02T11:19:33;18.20;99.90
25753;DHT22;13600;50.816;4.416;2024-03-02T11:22:00;20.30;99.90
25753;DHT22;13600;50.816;4.416;2024-03-02T11:27:05;19.60;97.30
25753;DHT22;13600;50.816;4.416;2024-03-02T11:34:45;20.40;96.90
25753;DHT22;13600;50.816;4.416;2024-03-02T11:37:13;22.00;94.60
25753;DHT22;13600;50.816;4.416;2024-03-02T11:39:39;22.00;92.80
25753;DHT22;13600;50.816;4.416;2024-03-02T11:42:07;21.60;93.00
25753;DHT22;13600;50.816;4.416;2024-03-02T11:44:35;21.30;93.80
25753;DHT22;13600;50.816;4.416;2024-03-02T11:47:05;21.00;93.80
25753;DHT22;13600;50.816;4.416;2024-03-02T11:52:13;20.60;93.40
25753;DHT22;13600;50.816;4.416;2024-03-02T11:54:40;21.80;93.50
25753;DHT22;13600;50.816;4.416;2024-03-02T11:57:12;22.80;90.10
25753;DHT22;13600;50.816;4.416;2024-03-02T11:59:38;23.00;90.50
25753;DHT22;13600;50.816;4.416;2024-03-02T12:02:03;22.80;89.40
25753;DHT22;13600;50.816;4.416;2024-03-02T12:04:30;22.50;85.50
25753;DHT22;13600;50.816;4.416;2024-03-02T12:07:00;22.10;90.10
25753;DHT22;13600;50.816;4.416;2024-03-02T12:09:27;21.60;90.20
25753;DHT22;13600;50.816;4.416;2024-03-02T12:12:07;20.90;91.10
25753;DHT22;13600;50.816;4.416;2024-03-02T12:14:35;20.70;91.70
25753;DHT22;13600;50.816;4.416;2024-03-02T12:17:02;20.90;91.40
25753;DHT22;13600;50.816;4.416;2024-03-02T12:19:29;20.20;91.20
25753;DHT22;13600;50.816;4.416;2024-03-02T12:21:59;19.90;92.20
25753;DHT22;13600;50.816;4.416;2024-03-02T12:24:27;20.40;92.10
25753;DHT22;13600;50.816;4.416;2024-03-02T12:26:53;19.80;93.10
25753;DHT22;13600;50.816;4.416;2024-03-02T12:29:20;20.00;93.30
25753;DHT22;13600;50.816;4.416;2024-03-02T12:31:50;20.60;92.40
25753;DHT22;13600;50.816;4.416;2024-03-02T12:34:18;19.60;93.20
25753;DHT22;13600;50.816;4.416;2024-03-02T12:36:45;18.90;94.70
25753;DHT22;13600;50.816;4.416;2024-03-02T12:39:13;18.40;94.80
25753;DHT22;13600;50.816;4.416;2024-03-02T12:41:39;17.60;97.00
25753;DHT22;13600;50.816;4.416;2024-03-02T12:44:05;16.70;98.60
25753;DHT22;13600;50.816;4.416;2024-03-02T12:46:32;16.10;99.90
25753;DHT22;13600;50.816;4.416;2024-03-02T12:48:58;15.50;99.90
25753;DHT22;13600;50.816;4.416;2024-03-02T12:51:30;14.90;99.90
25753;DHT22;13600;50.816;4.416;2024-03-02T12:53:57;15.10;99.90
25753;DHT22;13600;50.816;4.416;2024-03-02T12:56:24;15.80;99.90
25753;DHT22;13600;50.816;4.416;2024-03-02T12:58:54;16.30;99.90
25753;DHT22;13600;50.816;4.416;2024-03-02T13:01:20;16.60;99.90
25753;DHT22;13600;50.816;4.416;2024-03-02T13:03:52;16.80;99.90
25753;DHT22;13600;50.816;4.416;2024-03-02T13:06:18;16.50;99.90
25753;DHT22;13600;50.816;4.416;2024-03-02T13:08:46;16.90;99.90
25753;DHT22;13600;50.816;4.416;2024-03-02T13:11:16;17.90;99.90
25753;DHT22;13600;50.816;4.416;2024-03-02T13:13:42;18.30;99.90
25753;DHT22;13600;50.816;4.416;2024-03-02T13:16:09;18.00;99.90
25753;DHT22;13600;50.816;4.416;2024-03-02T13:18:41;17.40;99.90
25753;DHT22;13600;50.816;4.416;2024-03-02T13:21:10;16.40;99.90
25753;DHT22;13600;50.816;4.416;2024-03-02T13:23:36;16.00;99.90
25753;DHT22;13600;50.816;4.416;2024-03-02T13:26:02;15.90;99.90
25753;DHT22;13600;50.816;4.416;2024-03-02T13:28:28;16.00;99.90
25753;DHT22;13600;50.816;4.416;2024-03-02T13:30:53;15.90;99.90
25753;DHT22;13600;50.816;4.416;2024-03-02T13:33:19;15.90;99.90
25753;DHT22;13600;50.816;4.416;2024-03-02T13:35:51;15.80;99.90
25753;DHT22;13600;50.816;4.416;2024-03-02T13:38:20;15.60;99.90
25753;DHT22;13600;50.816;4.416;2024-03-02T13:40:48;15.50;99.90
25753;DHT22;13600;50.816;4.416;2024-03-02T13:43:18;15.50;99.90
25753;DHT22;13600;50.816;4.416;2024-03-02T13:45:47;15.60;99.90
25753;DHT22;13600;50.816;4.416;2024-03-02T13:48:13;15.40;99.90
25753;DHT22;13600;50.816;4.416;2024-03-02T13:50:40;15.10;99.90
25753;DHT22;13600;50.816;4.416;2024-03-02T13:53:06;15.10;99.90
25753;DHT22;13600;50.816;4.416;2024-03-02T13:55:33;15.20;99.90
25753;DHT22;13600;50.816;4.416;2024-03-02T13:57:59;15.30;99.90
25753;DHT22;13600;50.816;4.416;2024-03-02T14:00:25;15.30;99.90
25753;DHT22;13600;50.816;4.416;2024-03-02T14:02:51;15.20;99.90
25753;DHT22;13600;50.816;4.416;2024-03-02T14:05:17;15.20;99.90
25753;DHT22;13600;50.816;4.416;2024-03-02T14:07:44;15.10;99.90
25753;DHT22;13600;50.816;4.416;2024-03-02T14:10:10;15.10;99.90
25753;DHT22;13600;50.816;4.416;2024-03-02T14:12:37;15.20;99.90
25753;DHT22;13600;50.816;4.416;2024-03-02T14:15:04;15.30;99.90
25753;DHT22;13600;50.816;4.416;2024-03-02T14:17:30;15.10;99.90
25753;DHT22;13600;50.816;4.416;2024-03-02T14:19:58;15.10;99.90
25753;DHT22;13600;50.816;4.416;2024-03-02T14:22:25;14.80;99.90
25753;DHT22;13600;50.816;4.416;2024-03-02T14:24:50;14.70;99.90
25753;DHT22;13600;50.816;4.416;2024-03-02T14:27:16;14.60;99.90
25753;DHT22;13600;50.816;4.416;2024-03-02T14:29:46;14.50;99.90
25753;DHT22;13600;50.816;4.416;2024-03-02T14:32:13;14.50;99.90
25753;DHT22;13600;50.816;4.416;2024-03-02T14:34:39;14.60;99.90
25753;DHT22;13600;50.816;4.416;2024-03-02T14:37:04;14.50;99.90
25753;DHT22;13600;50.816;4.416;2024-03-02T14:39:30;14.40;99.90
25753;DHT22;13600;50.816;4.416;2024-03-02T14:42:00;14.20;99.90
25753;DHT22;13600;50.816;4.416;2024-03-02T14:44:26;14.10;99.90
25753;DHT22;13600;50.816;4.416;2024-03-02T14:46:52;14.50;99.90
25753;DHT22;13600;50.816;4.416;2024-03-02T14:49:18;14.80;99.90
25753;DHT22;13600;50.816;4.416;2024-03-02T14:51:44;14.70;99.90
25753;DHT22;13600;50.816;4.416;2024-03-02T14:54:10;14.80;99.90
25753;DHT22;13600;50.816;4.416;2024-03-02T14:56:37;15.00;99.90
25753;DHT22;13600;50.816;4.416;2024-03-02T14:59:02;15.10;99.90
25753;DHT22;13600;50.816;4.416;2024-03-02T15:01:28;15.00;99.90
25753;DHT22;13600;50.816;4.416;2024-03-02T15:03:54;15.00;99.90
25753;DHT22;13600;50.816;4.416;2024-03-02T15:06:20;15.00;99.90
25753;DHT22;13600;50.816;4.416;2024-03-02T15:08:46;14.90;99.90
25753;DHT22;13600;50.816;4.416;2024-03-02T15:11:12;14.60;99.90
25753;DHT22;13600;50.816;4.416;2024-03-02T15:13:38;14.40;99.90
25753;DHT22;13600;50.816;4.416;2024-03-02T15:16:04;14.00;99.90
25753;DHT22;13600;50.816;4.416;2024-03-02T15:18:30;13.80;99.90
25753;DHT22;13600;50.816;4.416;2024-03-02T15:20:56;14.00;99.90
25753;DHT22;13600;50.816;4.416;2024-03-02T15:23:22;13.80;99.90
25753;DHT22;13600;50.816;4.416;2024-03-02T15:25:48;13.80;99.90
25753;DHT22;13600;50.816;4.416;2024-03-02T15:28:13;13.80;99.90
25753;DHT22;13600;50.816;4.416;2024-03-02T15:30:39;13.60;99.90
25753;DHT22;13600;50.816;4.416;2024-03-02T15:33:05;13.60;99.90
25753;DHT22;13600;50.816;4.416;2024-03-02T15:35:31;13.60;99.90
25753;DHT22;13600;50.816;4.416;2024-03-02T15:37:57;13.80;99.90
25753;DHT22;13600;50.816;4.416;2024-03-02T15:40:22;13.90;99.90
25753;DHT22;13600;50.816;4.416;2024-03-02T15:42:48;13.90;99.90
25753;DHT22;13600;50.816;4.416;2024-03-02T15:45:14;14.10;99.90
25753;DHT22;13600;50.816;4.416;2024-03-02T15:47:41;14.10;99.90
25753;DHT22;13600;50.816;4.416;2024-03-02T15:50:07;14.10;99.90
25753;DHT22;13600;50.816;4.416;2024-03-02T15:52:33;14.20;99.90
25753;DHT22;13600;50.816;4.416;2024-03-02T15:54:59;14.30;99.90